Time;durP1;ratioP1;P1;durP2;ratioP2;P2;SDS_P1;SDS_P2;PMS_P1;PMS_P2;Temp;Humidity;BMP_temperature;BMP_pressure;BME280_temperature;BME280_humidity;BME280_pressure;Samples;Min_cycle;Max_cycle;Signal;HPM_P1;HPM_P2
2021/07/24 00:01:28;;;;;;;22.58;10.95;;;;;;;18.46;80.88;96141.59;5019004;28;20061;-60
2021/07/24 00:03:53;;;;;;;18.88;9.95;;;;;;;18.41;81.15;96144.88;5022710;28;20453;-59
2021/07/24 00:06:19;;;;;;;26.73;11.20;;;;;;;18.41;81.43;96149.63;5017553;28;20041;-59
2021/07/24 00:08:44;;;;;;;19.25;10.20;;;;;;;18.40;81.54;96156.38;5023462;28;20149;-62
2021/07/24 00:11:10;;;;;;;23.52;11.10;;;;;;;18.40;81.59;96150.84;5028787;28;20046;-59
2021/07/24 00:13:37;;;;;;;22.67;10.48;;;;;;;18.63;76.47;96152.69;5025985;28;20046;-61
2021/07/24 00:16:03;;;;;;;19.45;11.32;;;;;;;18.82;79.04;96151.06;5003398;28;20487;-59
2021/07/24 00:18:29;;;;;;;22.30;11.30;;;;;;;18.54;80.11;96151.28;5000410;28;20045;-60
2021/07/24 00:20:55;;;;;;;22.45;11.00;;;;;;;18.42;80.87;96143.66;5003867;28;20053;-60
2021/07/24 00:23:21;;;;;;;21.67;10.27;;;;;;;18.44;80.75;96145.97;5014050;28;20050;-60
2021/07/24 00:25:46;;;;;;;20.65;10.00;;;;;;;18.56;80.35;96136.97;5003380;28;20051;-60
2021/07/24 00:28:12;;;;;;;23.27;10.45;;;;;;;18.51;79.24;96129.19;5015621;28;20107;-59
2021/07/24 00:30:39;;;;;;;23.20;10.98;;;;;;;18.38;80.15;96126.31;5019123;28;20037;-61
2021/07/24 00:33:04;;;;;;;22.88;10.35;;;;;;;18.62;80.14;96126.16;5010179;28;20107;-62
2021/07/24 00:35:30;;;;;;;17.33;9.98;;;;;;;18.72;79.75;96117.56;5021824;28;20041;-62
2021/07/24 00:37:55;;;;;;;22.45;11.15;;;;;;;18.24;82.05;96119.13;5021704;28;20037;-59
2021/07/24 00:40:24;;;;;;;23.70;10.63;;;;;;;18.08;83.06;96119.88;5015927;28;20046;-62
2021/07/24 00:42:51;;;;;;;19.88;11.27;;;;;;;18.41;82.25;96117.16;5037744;28;20049;-62
2021/07/24 00:45:20;;;;;;;17.40;10.40;;;;;;;18.55;81.39;96121.56;5008231;28;20045;-61
2021/07/24 00:47:52;;;;;;;20.42;11.00;;;;;;;18.65;81.21;96109.41;5033030;28;20045;-63
2021/07/24 00:50:18;;;;;;;16.90;9.77;;;;;;;18.59;81.67;96111.16;5012068;28;20033;-60
2021/07/24 00:52:44;;;;;;;21.10;10.15;;;;;;;18.58;81.88;96103.28;5012865;28;20056;-60
2021/07/24 00:55:12;;;;;;;16.13;9.63;;;;;;;18.64;81.62;96107.88;4998400;28;20046;-60
2021/07/24 00:57:41;;;;;;;20.38;10.35;;;;;;;18.64;81.71;96104.34;5007107;28;20053;-61
2021/07/24 01:00:07;;;;;;;19.77;10.82;;;;;;;18.60;81.54;96092.53;5035777;28;20037;-60
2021/07/24 01:02:33;;;;;;;20.48;9.93;;;;;;;18.40;81.94;96092.63;5011280;28;20452;-62
2021/07/24 01:05:01;;;;;;;21.75;11.45;;;;;;;17.85;84.91;96087.53;5020926;28;20041;-56
2021/07/24 01:07:27;;;;;;;19.00;10.80;;;;;;;17.28;88.61;96088.72;5015064;28;20516;-57
2021/07/24 01:09:53;;;;;;;18.08;10.35;;;;;;;17.41;88.70;96075.00;5008378;28;20042;-62
2021/07/24 01:12:19;;;;;;;17.92;10.32;;;;;;;17.58;87.80;96096.78;5014794;28;20148;-60
2021/07/24 01:14:45;;;;;;;19.23;10.35;;;;;;;17.34;88.41;96096.09;5013317;28;20558;-61
2021/07/24 01:17:10;;;;;;;23.85;10.20;;;;;;;17.46;88.55;96085.59;5016386;28;20048;-62
2021/07/24 01:19:36;;;;;;;23.42;11.20;;;;;;;17.77;86.41;96086.09;5032042;28;20144;-62
2021/07/24 01:22:02;;;;;;;19.25;9.85;;;;;;;17.72;86.42;96092.94;5022812;28;20065;-62
2021/07/24 01:24:27;;;;;;;18.65;10.75;;;;;;;17.54;87.35;96089.78;5034752;28;20100;-63
2021/07/24 01:26:52;;;;;;;19.02;10.10;;;;;;;17.39;87.93;96081.75;5031535;28;20045;-59
2021/07/24 01:29:20;;;;;;;15.68;8.80;;;;;;;17.54;87.94;96081.47;5025501;28;20060;-59
2021/07/24 01:31:46;;;;;;;18.10;10.57;;;;;;;17.50;87.60;96078.78;5015016;28;20049;-60
2021/07/24 01:34:11;;;;;;;17.08;9.90;;;;;;;17.67;87.36;96087.91;4999721;28;20038;-59
2021/07/24 01:36:37;;;;;;;18.08;9.45;;;;;;;17.71;87.03;96076.75;5003680;28;20049;-61
2021/07/24 01:39:03;;;;;;;20.27;10.25;;;;;;;17.77;86.82;96086.91;5000645;28;20041;-62
2021/07/24 01:41:29;;;;;;;18.08;9.40;;;;;;;17.73;86.83;96091.72;4999949;28;20038;-62
2021/07/24 01:43:54;;;;;;;21.27;9.95;;;;;;;17.77;86.60;96083.31;4985044;28;20072;-61
2021/07/24 01:46:19;;;;;;;17.98;9.68;;;;;;;17.89;85.94;96093.00;5012253;28;20045;-61
2021/07/24 01:54:37;;;;;;;18.10;9.93;;;;;;;17.32;88.74;96106.00;4994939;28;20042;-62
2021/07/24 01:57:08;;;;;;;19.45;10.23;;;;;;;17.29;88.35;96110.44;5002212;28;20045;-62
2021/07/24 01:59:37;;;;;;;21.88;11.27;;;;;;;16.95;89.91;96105.91;5000464;28;20045;-60
2021/07/24 02:02:03;;;;;;;22.55;10.00;;;;;;;17.05;90.33;96111.69;4997355;28;20046;-62
2021/07/24 02:04:33;;;;;;;21.63;11.38;;;;;;;17.11;89.46;96104.47;4999949;28;20038;-62
2021/07/24 02:06:58;;;;;;;22.33;10.25;;;;;;;17.02;89.87;96104.25;5020007;28;20528;-60
2021/07/24 02:09:24;;;;;;;26.63;10.07;;;;;;;17.12;90.34;96111.53;5002363;28;20046;-59
2021/07/24 02:11:50;;;;;;;19.70;10.23;;;;;;;17.28;89.44;96110.84;5005370;28;20060;-60
2021/07/24 02:14:15;;;;;;;20.33;10.25;;;;;;;17.31;88.88;96101.72;5016521;28;20037;-60
2021/07/24 02:16:41;;;;;;;20.02;9.75;;;;;;;17.10;89.45;96100.91;5008261;28;20510;-58
2021/07/24 02:19:06;;;;;;;20.10;10.98;;;;;;;16.48;93.12;96103.16;5013626;28;20156;-59
2021/07/24 02:21:32;;;;;;;21.08;11.23;;;;;;;16.01;97.14;96106.63;5025086;28;20383;-61
2021/07/24 02:23:58;;;;;;;19.90;10.88;;;;;;;16.01;97.34;96095.59;5025854;28;20054;-59
2021/07/24 02:26:24;;;;;;;22.23;11.68;;;;;;;16.36;96.84;96096.22;5017079;28;20554;-60
2021/07/24 02:28:50;;;;;;;20.75;10.40;;;;;;;16.68;94.85;96099.66;5023936;28;20049;-60
2021/07/24 02:31:15;;;;;;;22.27;10.68;;;;;;;16.89;92.87;96112.34;5015478;28;20033;-60
2021/07/24 02:33:40;;;;;;;23.88;11.73;;;;;;;16.80;92.41;96113.66;5004001;28;20041;-61
2021/07/24 02:36:06;;;;;;;21.88;10.35;;;;;;;16.93;92.47;96116.63;5022012;28;20042;-63
2021/07/24 02:38:31;;;;;;;19.55;10.20;;;;;;;17.15;91.07;96107.94;5025398;28;20056;-59
2021/07/24 02:40:57;;;;;;;21.52;10.45;;;;;;;17.38;88.88;96107.09;5023366;28;20134;-60
2021/07/24 02:43:25;;;;;;;15.80;9.30;;;;;;;17.53;87.70;96113.13;5018016;28;20598;-61
2021/07/24 02:45:51;;;;;;;19.52;10.10;;;;;;;17.53;87.36;96108.34;5023786;28;20370;-62
2021/07/24 02:48:16;;;;;;;18.83;10.32;;;;;;;17.63;86.95;96117.66;5018287;28;20037;-59
2021/07/24 02:50:41;;;;;;;19.35;10.02;;;;;;;17.82;85.90;96107.75;5023589;28;20484;-61
2021/07/24 02:53:07;;;;;;;18.77;9.70;;;;;;;17.83;85.74;96108.56;5018398;28;20049;-59
2021/07/24 02:55:32;;;;;;;17.17;9.75;;;;;;;17.83;85.62;96095.47;5023886;28;20048;-61
2021/07/24 02:57:58;;;;;;;19.35;9.57;;;;;;;17.90;85.45;96102.88;5024262;28;20049;-60
2021/07/24 03:00:23;;;;;;;21.42;10.07;;;;;;;17.74;85.58;96093.28;5018244;28;20042;-60
2021/07/24 03:02:49;;;;;;;16.92;9.80;;;;;;;17.06;89.29;96085.59;5021004;28;20567;-60
2021/07/24 03:05:14;;;;;;;21.40;11.40;;;;;;;16.59;92.25;96076.09;5025549;28;20069;-61
2021/07/24 03:07:40;;;;;;;24.48;10.82;;;;;;;16.34;94.50;96070.22;5026353;28;20132;-59
2021/07/24 03:10:06;;;;;;;17.65;11.02;;;;;;;16.20;95.36;96065.69;5018309;28;20485;-61
2021/07/24 03:12:31;;;;;;;24.88;11.23;;;;;;;16.08;96.86;96069.03;5022725;28;20041;-62
2021/07/24 03:14:56;;;;;;;20.92;11.75;;;;;;;15.95;97.20;96066.84;5021729;28;20092;-61
2021/07/24 03:17:23;;;;;;;22.40;11.55;;;;;;;16.12;97.38;96056.75;5018706;28;20049;-61
2021/07/24 03:19:49;;;;;;;21.20;10.45;;;;;;;16.41;95.16;96059.06;5023411;28;20041;-60
2021/07/24 03:22:15;;;;;;;20.80;11.25;;;;;;;16.68;93.08;96064.50;5023452;28;20261;-62
2021/07/24 03:24:40;;;;;;;25.98;11.00;;;;;;;16.76;92.00;96059.63;5028126;28;20046;-62
2021/07/24 03:27:05;;;;;;;19.50;11.63;;;;;;;16.78;91.41;96057.22;5017913;28;20485;-58
2021/07/24 03:29:31;;;;;;;22.30;11.05;;;;;;;16.78;91.79;96059.97;5005246;28;20563;-60
2021/07/24 03:31:56;;;;;;;22.75;10.40;;;;;;;16.76;91.56;96054.88;5022786;28;20433;-60
2021/07/24 03:34:22;;;;;;;19.23;10.63;;;;;;;16.70;91.50;96059.31;5015292;28;20049;-62
2021/07/24 03:36:47;;;;;;;22.63;9.95;;;;;;;16.69;91.40;96066.06;5022716;28;20058;-60
2021/07/24 03:39:12;;;;;;;19.73;10.65;;;;;;;16.70;91.00;96064.09;4999080;28;20068;-60
2021/07/24 03:41:38;;;;;;;18.83;10.35;;;;;;;16.74;91.52;96075.84;5014495;28;20319;-60
2021/07/24 03:44:04;;;;;;;16.85;10.32;;;;;;;16.88;90.41;96072.09;5013197;28;20045;-61
2021/07/24 03:46:30;;;;;;;26.35;11.30;;;;;;;16.85;89.64;96064.63;5021255;28;20041;-58
2021/07/24 03:48:55;;;;;;;23.88;10.90;;;;;;;16.77;91.48;96083.31;5004233;28;20049;-59
2021/07/24 03:51:21;;;;;;;18.05;10.43;;;;;;;16.93;90.00;96066.06;5015570;28;20744;-62
2021/07/24 03:53:47;;;;;;;20.83;10.77;;;;;;;17.04;89.50;96071.41;5021476;28;20072;-59
2021/07/24 03:56:16;;;;;;;20.83;10.32;;;;;;;17.24;88.30;96074.94;5003206;28;20046;-62
2021/07/24 03:58:43;;;;;;;21.73;10.35;;;;;;;17.33;87.61;96077.91;5025700;28;20045;-62
2021/07/24 04:01:09;;;;;;;22.00;10.63;;;;;;;17.36;86.94;96079.06;5021821;28;20042;-60
2021/07/24 04:03:35;;;;;;;21.27;11.55;;;;;;;17.26;87.68;96077.28;5036567;28;20056;-63
2021/07/24 04:06:02;;;;;;;23.02;10.38;;;;;;;17.21;87.59;96081.31;5021559;28;20048;-62
2021/07/24 04:08:27;;;;;;;18.60;10.40;;;;;;;17.18;87.86;96080.19;5028213;28;20053;-60
2021/07/24 04:10:53;;;;;;;23.35;10.45;;;;;;;17.17;88.28;96084.16;5004861;28;20036;-58
2021/07/24 04:13:19;;;;;;;23.10;11.10;;;;;;;17.27;88.34;96092.66;5019600;28;20390;-60
2021/07/24 04:15:45;;;;;;;21.50;10.00;;;;;;;17.30;88.01;96095.38;5021565;28;20041;-60
2021/07/24 04:18:11;;;;;;;20.55;10.35;;;;;;;17.40;87.93;96101.91;5010699;28;20045;-62
2021/07/24 04:20:38;;;;;;;19.77;11.40;;;;;;;17.53;86.89;96110.34;5007325;28;20041;-59
2021/07/24 04:23:05;;;;;;;20.40;10.88;;;;;;;17.62;86.63;96110.56;5012435;28;20053;-61
2021/07/24 04:25:31;;;;;;;21.90;9.77;;;;;;;17.74;86.11;96120.22;5003897;28;20045;-61
2021/07/24 04:27:56;;;;;;;19.20;10.18;;;;;;;17.88;85.14;96121.91;5017663;28;20037;-61
2021/07/24 04:30:21;;;;;;;20.00;10.18;;;;;;;17.87;84.24;96110.06;5015049;28;20719;-59
2021/07/24 04:32:47;;;;;;;22.40;11.52;;;;;;;17.53;86.08;96102.81;5028195;28;20562;-60
2021/07/24 04:35:12;;;;;;;23.65;11.05;;;;;;;16.97;89.51;96091.66;5018306;28;20044;-61
2021/07/24 04:37:38;;;;;;;26.50;12.35;;;;;;;16.65;92.34;96087.47;5024693;28;20069;-62
2021/07/24 04:40:04;;;;;;;22.27;12.27;;;;;;;16.31;95.60;96077.34;5019444;28;20034;-63
2021/07/24 04:42:31;;;;;;;24.08;12.57;;;;;;;16.17;96.85;96075.63;5021178;28;20444;-61
2021/07/24 04:44:57;;;;;;;26.52;13.10;;;;;;;16.27;96.49;96081.38;5021427;28;20055;-62
2021/07/24 04:47:22;;;;;;;18.52;11.60;;;;;;;16.50;96.30;96080.63;5016510;28;20113;-61
2021/07/24 04:49:49;;;;;;;22.17;12.13;;;;;;;16.73;95.02;96091.66;5021915;28;20037;-61
2021/07/24 04:52:15;;;;;;;22.30;11.73;;;;;;;17.00;92.76;96127.56;5014772;28;20760;-60
2021/07/24 04:54:43;;;;;;;24.90;14.32;;;;;;;17.07;91.60;96167.38;5021365;28;20045;-62
2021/07/24 04:57:09;;;;;;;27.85;13.88;;;;;;;17.24;92.11;96191.16;5025760;23;20548;-65
2021/07/24 04:59:36;;;;;;;23.42;13.18;;;;;;;17.39;92.23;96214.63;4994328;28;20057;-64
2021/07/24 05:02:02;;;;;;;25.08;12.38;;;;;;;17.42;93.98;96248.97;4981626;28;20137;-63
2021/07/24 05:04:28;;;;;;;27.70;13.75;;;;;;;17.18;96.61;96276.66;4993123;28;20056;-65
2021/07/24 05:06:55;;;;;;;32.05;13.68;;;;;;;17.09;99.30;96297.78;4992835;28;20053;-66
2021/07/24 05:09:21;;;;;;;33.35;15.35;;;;;;;17.08;100.00;96290.66;4985149;28;20046;-66
2021/07/24 05:11:46;;;;;;;29.40;14.15;;;;;;;16.79;100.00;96302.13;5000300;28;20107;-65
2021/07/24 05:14:12;;;;;;;28.65;14.02;;;;;;;16.87;100.00;96311.94;4995453;28;20096;-66
2021/07/24 05:16:37;;;;;;;24.48;14.45;;;;;;;16.88;100.00;96302.44;5005812;28;20053;-64
2021/07/24 05:19:05;;;;;;;30.15;13.30;;;;;;;17.11;100.00;96273.25;5003706;28;20050;-66
2021/07/24 05:21:31;;;;;;;25.52;13.77;;;;;;;17.14;100.00;96262.13;5001463;28;20060;-63
2021/07/24 05:23:56;;;;;;;26.85;13.65;;;;;;;17.12;100.00;96258.97;4983127;28;20042;-64
2021/07/24 05:26:22;;;;;;;25.40;13.75;;;;;;;16.79;100.00;96244.06;4994669;28;20100;-64
2021/07/24 05:28:48;;;;;;;27.45;14.75;;;;;;;16.64;100.00;96235.22;4999854;28;20045;-64
2021/07/24 05:31:21;;;;;;;31.05;15.95;;;;;;;16.38;100.00;96200.81;4985208;28;20069;-64
2021/07/24 05:33:47;;;;;;;32.95;16.83;;;;;;;16.29;100.00;96189.50;4997588;28;20111;-63
2021/07/24 05:36:12;;;;;;;30.50;17.65;;;;;;;16.25;100.00;96195.09;4995551;28;20041;-65
2021/07/24 05:38:38;;;;;;;36.65;17.60;;;;;;;16.24;100.00;96197.09;4999898;28;20144;-63
2021/07/24 05:41:04;;;;;;;31.05;16.58;;;;;;;16.34;100.00;96195.34;4989623;28;20100;-65
2021/07/24 05:43:29;;;;;;;24.80;15.07;;;;;;;16.40;100.00;96196.47;4980645;28;20038;-65
2021/07/24 05:45:55;;;;;;;28.05;15.23;;;;;;;16.49;100.00;96181.31;4992971;28;20483;-64
2021/07/24 05:48:20;;;;;;;30.95;13.93;;;;;;;16.66;100.00;96171.97;4996247;28;20045;-65
2021/07/24 05:50:45;;;;;;;25.27;14.23;;;;;;;17.01;100.00;96167.06;5007002;28;20057;-64
2021/07/24 05:53:11;;;;;;;27.55;13.63;;;;;;;16.96;100.00;96184.16;4997055;28;20134;-63
2021/07/24 05:55:38;;;;;;;24.52;13.95;;;;;;;16.95;100.00;96191.66;4992562;28;20136;-64
2021/07/24 05:58:04;;;;;;;33.95;14.45;;;;;;;17.15;100.00;96196.47;4993947;28;20607;-65
2021/07/24 06:00:29;;;;;;;25.77;13.88;;;;;;;17.28;100.00;96197.41;4991035;28;20050;-64
2021/07/24 06:02:55;;;;;;;23.70;14.35;;;;;;;17.44;100.00;96205.03;4998462;28;20083;-64
2021/07/24 06:05:20;;;;;;;28.88;14.05;;;;;;;17.26;100.00;96205.38;4995008;28;20046;-64
2021/07/24 06:07:45;;;;;;;25.50;13.35;;;;;;;17.46;100.00;96244.16;5000271;28;20038;-63
2021/07/24 06:10:11;;;;;;;28.13;12.90;;;;;;;17.52;100.00;96272.13;4994484;28;20030;-64
2021/07/24 06:12:36;;;;;;;27.60;14.35;;;;;;;17.62;100.00;96307.16;4994995;28;20060;-63
2021/07/24 06:15:02;;;;;;;24.50;13.18;;;;;;;17.49;100.00;96350.50;4985403;28;20042;-65
2021/07/24 06:17:27;;;;;;;23.55;13.70;;;;;;;17.32;100.00;96358.69;4995149;28;20045;-64
2021/07/24 06:19:53;;;;;;;24.10;13.15;;;;;;;17.61;100.00;96349.91;4990312;28;20038;-64
2021/07/24 06:22:18;;;;;;;26.70;13.50;;;;;;;17.69;100.00;96379.03;4987051;28;20049;-66
2021/07/24 06:24:43;;;;;;;23.48;13.27;;;;;;;17.77;100.00;96374.16;4978051;28;20657;-65
2021/07/24 06:27:09;;;;;;;23.85;13.70;;;;;;;17.94;100.00;96372.31;4972652;28;20049;-65
2021/07/24 06:29:34;;;;;;;19.77;12.55;;;;;;;17.99;100.00;96368.25;4983863;28;20453;-66
2021/07/24 06:31:59;;;;;;;23.52;12.88;;;;;;;18.19;100.00;96371.09;4993425;28;20042;-65
2021/07/24 06:34:25;;;;;;;25.20;14.13;;;;;;;18.21;100.00;96377.75;4990296;28;20718;-64
2021/07/24 06:36:50;;;;;;;21.02;12.35;;;;;;;18.12;100.00;96372.00;4993334;28;20042;-65
2021/07/24 06:39:17;;;;;;;19.23;12.38;;;;;;;18.29;100.00;96378.41;4990365;28;20041;-64
2021/07/24 06:41:42;;;;;;;19.83;12.40;;;;;;;18.45;100.00;96389.56;5000016;28;20038;-65
2021/07/24 06:44:08;;;;;;;22.42;12.35;;;;;;;18.66;100.00;96402.22;4995128;28;20065;-65
2021/07/24 06:46:34;;;;;;;22.05;13.02;;;;;;;18.79;100.00;96402.34;5006465;28;20446;-66
2021/07/24 06:48:59;;;;;;;22.92;13.43;;;;;;;18.90;100.00;96413.25;5000972;28;20050;-66
2021/07/24 06:51:25;;;;;;;23.95;13.10;;;;;;;18.94;100.00;96413.97;4987527;28;20058;-66
2021/07/24 06:53:51;;;;;;;22.85;13.38;;;;;;;19.02;100.00;96411.84;5002677;28;20534;-66
2021/07/24 06:56:17;;;;;;;23.58;13.50;;;;;;;19.12;100.00;96410.03;4987517;28;20375;-64
2021/07/24 06:58:42;;;;;;;23.88;12.82;;;;;;;19.22;100.00;96417.34;4999113;28;20045;-65
2021/07/24 07:01:08;;;;;;;25.33;13.13;;;;;;;19.30;100.00;96421.50;4991253;28;20038;-64
2021/07/24 07:03:34;;;;;;;24.95;13.60;;;;;;;19.35;99.83;96429.31;5000732;28;20061;-64
2021/07/24 07:05:59;;;;;;;20.50;13.25;;;;;;;19.24;99.11;96434.34;4995209;28;20097;-64
2021/07/24 07:08:25;;;;;;;37.97;21.40;;;;;;;19.10;99.83;96455.66;4992577;28;20045;-65
2021/07/24 07:10:51;;;;;;;25.50;14.20;;;;;;;19.26;99.52;96457.69;4996767;28;20062;-65
2021/07/24 07:13:18;;;;;;;25.20;13.85;;;;;;;19.21;99.83;96449.06;4995798;28;20872;-64
2021/07/24 07:15:43;;;;;;;21.63;12.82;;;;;;;19.36;98.40;96433.69;4992911;28;20122;-64
2021/07/24 07:18:09;;;;;;;23.80;13.43;;;;;;;18.53;100.00;96415.19;4993740;28;20046;-62
2021/07/24 07:20:34;;;;;;;25.88;13.82;;;;;;;18.57;100.00;96417.88;4995259;28;20073;-63
2021/07/24 07:22:59;;;;;;;25.67;14.90;;;;;;;18.68;100.00;96435.88;4991360;28;20047;-64
2021/07/24 07:25:25;;;;;;;27.45;13.90;;;;;;;18.69;100.00;96434.66;4987683;28;20050;-64
2021/07/24 07:27:50;;;;;;;25.13;12.52;;;;;;;18.96;100.00;96410.75;4998876;28;20088;-64
2021/07/24 07:30:16;;;;;;;25.20;15.25;;;;;;;18.00;100.00;96386.47;4988073;28;20042;-64
2021/07/24 07:32:41;;;;;;;21.88;13.05;;;;;;;18.11;100.00;96404.47;4992359;28;20049;-65
2021/07/24 07:35:07;;;;;;;23.88;14.48;;;;;;;18.34;100.00;96403.63;4994828;28;20046;-64
2021/07/24 07:37:32;;;;;;;26.33;14.77;;;;;;;18.48;98.13;96405.34;4991829;28;20077;-65
2021/07/24 07:39:58;;;;;;;24.63;13.20;;;;;;;17.84;100.00;96389.88;4998645;28;20074;-63
2021/07/24 07:42:23;;;;;;;23.55;14.52;;;;;;;17.94;100.00;96383.41;4995821;28;20050;-64
2021/07/24 07:44:49;;;;;;;28.80;13.95;;;;;;;17.82;100.00;96393.06;4992415;28;20050;-64
2021/07/24 07:47:14;;;;;;;23.55;14.05;;;;;;;18.13;100.00;96421.47;4991165;28;20510;-63
2021/07/24 07:49:40;;;;;;;28.52;14.52;;;;;;;18.52;100.00;96410.84;4992678;28;20483;-63
2021/07/24 07:52:06;;;;;;;25.48;14.35;;;;;;;18.94;97.89;96407.63;4991208;28;20076;-64
2021/07/24 07:54:33;;;;;;;28.67;15.68;;;;;;;18.93;99.14;96412.41;5003099;28;20513;-63
2021/07/24 07:57:02;;;;;;;22.08;13.63;;;;;;;18.77;99.14;96413.09;5001469;28;20057;-63
2021/07/24 07:59:28;;;;;;;23.50;14.68;;;;;;;18.53;98.35;96404.09;4989278;28;20046;-63
2021/07/24 08:01:53;;;;;;;26.70;14.80;;;;;;;18.37;98.47;96406.78;4997549;28;20458;-63
2021/07/24 08:04:20;;;;;;;25.67;13.20;;;;;;;18.56;99.51;96411.53;4995453;28;20103;-64
2021/07/24 08:06:45;;;;;;;24.98;13.73;;;;;;;18.85;100.00;96419.31;4991339;28;20050;-63
2021/07/24 08:09:10;;;;;;;24.25;15.68;;;;;;;18.81;100.00;96413.84;4979631;28;20110;-63
2021/07/24 08:11:36;;;;;;;25.25;14.05;;;;;;;19.04;100.00;96399.06;4998103;28;20147;-64
2021/07/24 08:14:02;;;;;;;25.30;13.80;;;;;;;18.81;98.96;96388.06;4997105;28;20042;-64
2021/07/24 08:16:27;;;;;;;23.55;14.45;;;;;;;18.61;100.00;96386.06;4992781;28;20056;-64
2021/07/24 08:18:53;;;;;;;26.25;15.35;;;;;;;18.31;100.00;96379.56;4991107;28;20038;-63
2021/07/24 08:21:18;;;;;;;27.65;15.65;;;;;;;18.14;100.00;96377.88;4991292;28;20137;-63
2021/07/24 08:23:43;;;;;;;31.23;16.17;;;;;;;18.15;100.00;96362.84;4994502;28;20054;-64
2021/07/24 08:26:09;;;;;;;25.02;15.07;;;;;;;18.22;100.00;96364.66;4971917;28;20042;-64
2021/07/24 08:28:35;;;;;;;25.98;14.00;;;;;;;18.49;100.00;96367.31;4981544;28;20049;-64
2021/07/24 08:31:00;;;;;;;25.40;14.23;;;;;;;19.07;100.00;96380.78;4987822;28;20038;-65
2021/07/24 08:33:27;;;;;;;24.85;13.82;;;;;;;19.73;99.88;96384.41;4986680;28;20057;-65
2021/07/24 08:35:54;;;;;;;26.52;13.90;;;;;;;20.27;94.65;96382.25;4983209;28;20096;-64
2021/07/24 08:38:19;;;;;;;21.85;12.27;;;;;;;20.39;91.70;96375.97;4974180;28;20119;-64
2021/07/24 08:40:49;;;;;;;22.35;12.32;;;;;;;20.77;90.28;96378.88;4999446;28;20573;-65
2021/07/24 08:43:15;;;;;;;;;;;;;;;21.18;88.14;96398.75;4993702;28;20575;-65
2021/07/24 08:45:41;;;;;;;19.77;12.10;;;;;;;20.88;88.21;96389.69;4997548;28;19922;-64
2021/07/24 08:48:07;;;;;;;25.10;12.55;;;;;;;20.76;87.89;96365.41;4983229;28;20034;-65
2021/07/24 08:50:34;;;;;;;23.00;12.40;;;;;;;20.90;88.22;96364.97;4973456;28;20057;-64
2021/07/24 08:53:05;;;;;;;26.20;13.00;;;;;;;20.02;93.33;96353.91;4960640;28;20052;-66
2021/07/24 08:55:30;;;;;;;26.17;13.73;;;;;;;20.09;94.07;96339.03;4998916;28;20042;-63
2021/07/24 08:57:58;;;;;;;20.80;12.60;;;;;;;20.46;91.40;96325.69;4979402;28;20048;-65
2021/07/24 09:00:26;;;;;;;25.23;13.60;;;;;;;20.56;91.66;96313.47;4992084;28;20964;-64
2021/07/24 09:02:53;;;;;;;24.20;13.65;;;;;;;20.01;94.37;96323.78;4985253;28;20096;-65
2021/07/24 09:05:19;;;;;;;23.25;12.30;;;;;;;20.49;91.46;96312.91;4994742;28;20042;-65
2021/07/24 09:07:47;;;;;;;24.25;12.45;;;;;;;20.27;91.51;96318.28;4992859;28;20617;-65
2021/07/24 09:10:14;;;;;;;22.48;12.55;;;;;;;20.20;93.36;96327.59;4985934;28;20063;-65
2021/07/24 09:12:42;;;;;;;22.85;12.95;;;;;;;20.78;90.16;96352.63;4999670;28;20038;-64
2021/07/24 09:15:10;;;;;;;21.58;12.90;;;;;;;21.19;90.37;96355.75;4992140;28;20120;-63
2021/07/24 09:17:35;;;;;;;23.02;13.25;;;;;;;21.73;89.47;96351.25;4998642;28;20038;-63
2021/07/24 09:20:02;;;;;;;19.80;12.45;;;;;;;21.95;88.08;96334.63;4992842;28;20116;-63
2021/07/24 09:22:28;;;;;;;23.50;12.88;;;;;;;22.84;81.44;96327.03;4992315;28;20140;-63
2021/07/24 09:25:05;;;;;;;23.95;13.48;;;;;;;23.00;76.57;96318.41;4997564;28;20038;-63
2021/07/24 09:27:30;;;;;;;24.30;12.35;;;;;;;23.54;77.58;96316.31;4999178;28;20121;-63
2021/07/24 09:29:56;;;;;;;22.27;13.20;;;;;;;22.03;80.60;96327.53;4991725;28;20064;-63
2021/07/24 09:32:21;;;;;;;25.48;13.13;;;;;;;22.13;80.88;96320.81;4992898;28;20151;-63
2021/07/24 09:34:46;;;;;;;20.00;12.52;;;;;;;22.14;82.42;96316.00;4996439;28;20038;-64
2021/07/24 09:37:31;;;;;;;26.55;14.30;;;;;;;22.39;78.62;96317.16;4990718;28;20042;-65
2021/07/24 09:40:18;;;;;;;22.00;12.95;;;;;;;22.40;75.85;96313.13;4996568;28;20049;-64
2021/07/24 09:42:43;;;;;;;21.65;11.93;;;;;;;23.00;72.91;96314.84;4964779;28;20406;-63
2021/07/24 09:45:10;;;;;;;19.45;11.05;;;;;;;22.35;73.85;96311.69;4993909;28;20046;-64
2021/07/24 09:47:35;;;;;;;17.77;11.25;;;;;;;22.13;76.65;96294.94;4999428;28;20511;-63
2021/07/24 09:50:12;;;;;;;21.27;11.70;;;;;;;22.18;76.08;96285.19;4993440;28;20054;-65
2021/07/24 09:52:53;;;;;;;19.00;11.35;;;;;;;23.34;74.18;96268.44;5002589;28;20069;-64
2021/07/24 09:55:25;;;;;;;16.80;10.15;;;;;;;24.76;65.65;96263.44;4997882;28;20519;-64
2021/07/24 09:57:56;;;;;;;22.98;11.07;;;;;;;23.85;69.06;96243.50;4994619;28;20058;-65
2021/07/24 10:00:29;;;;;;;26.90;15.48;;;;;;;23.20;69.12;96247.44;4995525;28;20104;-64
2021/07/24 10:02:56;;;;;;;19.48;11.18;;;;;;;23.19;71.15;96249.47;4996597;28;20043;-64
2021/07/24 10:05:23;;;;;;;20.60;10.93;;;;;;;23.78;68.83;96237.44;4993575;28;20050;-64
2021/07/24 10:07:49;;;;;;;19.50;10.90;;;;;;;23.28;70.85;96234.72;4993281;28;20128;-63
2021/07/24 10:10:17;;;;;;;20.77;12.25;;;;;;;23.25;71.27;96232.88;4970694;28;20080;-65
2021/07/24 10:12:42;;;;;;;21.05;11.27;;;;;;;24.14;66.67;96222.66;5001334;28;20041;-65
2021/07/24 10:15:11;;;;;;;21.05;11.48;;;;;;;23.58;70.52;96223.91;4987670;28;20129;-66
2021/07/24 10:17:37;;;;;;;18.60;9.88;;;;;;;24.71;68.57;96229.72;4991694;28;20054;-65
2021/07/24 10:20:05;;;;;;;19.10;10.80;;;;;;;24.59;65.97;96221.03;4995803;28;20125;-65
2021/07/24 10:22:30;;;;;;;18.02;10.75;;;;;;;24.67;63.68;96224.28;4994956;28;20053;-65
2021/07/24 10:24:56;;;;;;;17.50;9.95;;;;;;;25.94;61.82;96231.63;4994946;28;20061;-65
2021/07/24 10:27:27;;;;;;;21.27;10.57;;;;;;;25.57;62.18;96242.34;4993764;28;22189;-64
2021/07/24 10:30:06;;;;;;;19.40;10.38;;;;;;;26.09;62.68;96245.69;5002275;28;20049;-65
2021/07/24 10:32:36;;;;;;;17.52;10.85;;;;;;;27.41;58.36;96244.53;5003412;28;20034;-64
2021/07/24 10:35:02;;;;;;;;;;;;;;;27.67;56.30;96238.97;4998863;28;20061;-64
2021/07/24 10:37:44;;;;;;;15.05;8.90;;;;;;;28.19;54.27;96243.94;4981090;28;19918;-64
2021/07/24 10:40:15;;;;;;;16.70;9.75;;;;;;;27.14;52.14;96243.63;5000403;28;20092;-66
2021/07/24 10:42:41;;;;;;;19.10;9.40;;;;;;;26.83;53.74;96236.53;4982824;28;20401;-65
2021/07/24 10:45:31;;;;;;;15.95;10.00;;;;;;;25.70;59.53;96230.88;4979211;28;20046;-65
2021/07/24 10:48:12;;;;;;;18.33;10.45;;;;;;;27.37;56.43;96227.09;4966724;28;20371;-64
2021/07/24 10:50:49;;;;;;;14.15;8.55;;;;;;;28.23;52.57;96230.41;4983770;28;20069;-64
2021/07/24 10:53:15;;;;;;;15.10;8.55;;;;;;;28.85;49.81;96227.41;4982089;28;20050;-64
2021/07/24 10:55:42;;;;;;;17.27;9.73;;;;;;;28.85;51.32;96230.25;4996813;28;20048;-64
2021/07/24 10:58:08;;;;;;;16.05;9.45;;;;;;;28.81;51.30;96232.50;5000041;28;20041;-64
2021/07/24 11:00:35;;;;;;;17.67;9.02;;;;;;;29.00;50.46;96230.09;4983262;28;20053;-65
2021/07/24 11:03:01;;;;;;;14.88;8.95;;;;;;;29.16;49.93;96221.75;5006710;28;20045;-65
2021/07/24 11:05:28;;;;;;;15.20;9.20;;;;;;;29.42;48.82;96218.03;4998222;28;20042;-64
2021/07/24 11:07:54;;;;;;;15.77;8.80;;;;;;;29.79;47.99;96213.63;5003031;28;20037;-64
2021/07/24 11:10:20;;;;;;;18.65;9.35;;;;;;;29.49;51.44;96206.28;4992706;28;20037;-65
2021/07/24 11:12:46;;;;;;;18.13;9.25;;;;;;;29.67;50.21;96207.13;4998727;28;20042;-65
2021/07/24 11:15:20;;;;;;;16.65;9.73;;;;;;;29.41;52.02;96207.28;4987769;28;20507;-64
2021/07/24 11:18:24;;;;;;;19.98;10.85;;;;;;;29.00;54.33;96221.63;5002370;28;20054;-64
2021/07/24 11:20:51;;;;;;;16.02;9.95;;;;;;;29.17;53.88;96219.69;4990709;28;20140;-64